Time;durP1;ratioP1;P1;durP2;ratioP2;P2;SDS_P1;SDS_P2;PMS_P1;PMS_P2;Temp;Humidity;BMP_temperature;BMP_pressure;BME280_temperature;BME280_humidity;BME280_pressure;Samples;Min_cycle;Max_cycle;Signal;HPM_P1;HPM_P2
2022/03/11 00:01:30;;;;;;;23.10;11.57;;;;;;;1.72;84.23;100058.09;5040517;28;20120;-77
2022/03/11 00:04:01;;;;;;;25.38;12.18;;;;;;;1.92;83.91;100085.84;5042877;28;20384;-77
2022/03/11 00:06:32;;;;;;;22.40;12.25;;;;;;;2.00;84.13;100088.53;5042873;28;20057;-76
2022/03/11 00:09:03;;;;;;;29.30;14.07;;;;;;;2.00;83.68;100079.13;5042751;28;20084;-77
2022/03/11 00:11:34;;;;;;;23.60;12.98;;;;;;;2.03;83.94;100089.47;5042645;28;20046;-77
2022/03/11 00:14:05;;;;;;;29.77;13.98;;;;;;;2.04;83.71;100086.03;5042586;28;20049;-77
2022/03/11 00:16:37;;;;;;;31.25;13.80;;;;;;;2.08;83.92;100085.25;5042043;28;20113;-78
2022/03/11 00:19:08;;;;;;;28.85;13.18;;;;;;;2.07;83.85;100075.81;5043146;28;20046;-78
2022/03/11 00:21:38;;;;;;;23.80;13.43;;;;;;;2.09;83.45;100076.66;5042862;28;20105;-77
2022/03/11 00:24:10;;;;;;;22.15;12.93;;;;;;;2.03;83.55;100068.00;5042600;28;20290;-77
2022/03/11 00:26:40;;;;;;;28.17;13.23;;;;;;;2.08;83.41;100080.09;5043018;28;20401;-77
2022/03/11 00:29:09;;;;;;;28.80;14.77;;;;;;;2.10;83.52;100065.53;5042926;28;20069;-80
2022/03/11 00:31:42;;;;;;;30.45;15.23;;;;;;;2.11;83.66;100062.09;5042717;28;20048;-80
2022/03/11 00:34:13;;;;;;;31.55;15.65;;;;;;;2.09;83.43;100061.19;5042475;28;20051;-82
2022/03/11 00:36:44;;;;;;;34.45;17.08;;;;;;;2.10;83.59;100065.53;5042646;28;20110;-81
2022/03/11 00:39:15;;;;;;;35.53;16.80;;;;;;;2.12;83.42;100058.69;5039485;28;20041;-81
2022/03/11 00:41:45;;;;;;;38.25;17.70;;;;;;;2.13;83.14;100052.69;5040931;28;20042;-81
2022/03/11 00:44:16;;;;;;;38.30;19.13;;;;;;;2.15;83.49;100053.56;5037172;28;20089;-80
2022/03/11 00:46:48;;;;;;;50.83;20.15;;;;;;;2.20;83.18;100057.91;5041664;28;20052;-80
2022/03/11 00:49:19;;;;;;;40.50;19.45;;;;;;;2.06;83.29;100022.50;5041819;28;20103;-81
2022/03/11 00:51:50;;;;;;;45.05;20.92;;;;;;;2.36;82.79;100054.72;5033910;28;20063;-80
2022/03/11 00:54:21;;;;;;;46.28;21.20;;;;;;;2.42;82.94;100052.22;5041833;28;20360;-80
2022/03/11 00:56:51;;;;;;;46.80;20.25;;;;;;;2.43;82.79;100042.78;5042158;28;20073;-80
2022/03/11 00:59:22;;;;;;;53.05;20.80;;;;;;;2.38;82.62;100029.81;5042219;28;20049;-80
2022/03/11 01:01:55;;;;;;;56.95;20.88;;;;;;;2.45;82.57;100031.63;5041928;28;20091;-80
2022/03/11 01:04:28;;;;;;;44.42;21.08;;;;;;;2.55;81.97;100038.63;5038214;28;20053;-80
2022/03/11 01:06:58;;;;;;;47.72;20.55;;;;;;;2.48;81.77;100031.66;5042218;28;20080;-79
2022/03/11 01:09:29;;;;;;;45.40;19.75;;;;;;;2.44;81.82;100032.47;5042109;28;20053;-79
2022/03/11 01:12:00;;;;;;;46.22;19.75;;;;;;;2.41;81.69;100035.00;5041963;28;20053;-78
2022/03/11 01:14:30;;;;;;;43.13;19.33;;;;;;;2.41;81.84;100029.84;5041823;28;20096;-79
2022/03/11 01:17:02;;;;;;;43.90;21.05;;;;;;;2.40;81.76;100034.97;5040831;28;20052;-79
2022/03/11 01:19:34;;;;;;;41.63;20.45;;;;;;;2.21;81.68;100010.69;5032774;28;20221;-79
2022/03/11 01:22:05;;;;;;;49.25;19.70;;;;;;;2.32;81.68;100025.44;5041715;28;20048;-79
2022/03/11 01:24:36;;;;;;;36.08;19.90;;;;;;;2.32;81.75;100029.72;5041965;28;20077;-79
2022/03/11 01:27:07;;;;;;;44.10;20.90;;;;;;;2.29;81.97;100024.53;5041634;28;20049;-80
2022/03/11 01:29:38;;;;;;;43.58;20.85;;;;;;;2.34;81.81;100020.28;5041816;28;20100;-79
2022/03/11 01:32:10;;;;;;;46.13;20.23;;;;;;;2.34;82.03;100007.41;5041586;28;20270;-79
2022/03/11 01:34:41;;;;;;;39.53;19.40;;;;;;;2.34;81.60;100002.25;5041502;28;20077;-79
2022/03/11 01:37:11;;;;;;;40.00;16.75;;;;;;;2.39;81.89;100008.31;5041504;28;20045;-79
2022/03/11 01:39:42;;;;;;;42.80;16.63;;;;;;;2.37;81.73;99991.97;5034577;28;20049;-79
2022/03/11 01:42:13;;;;;;;36.33;16.63;;;;;;;2.43;81.35;100004.94;5041429;28;20041;-78
2022/03/11 01:44:44;;;;;;;34.95;16.08;;;;;;;2.45;81.55;99997.25;5041388;28;20057;-79
2022/03/11 01:47:16;;;;;;;35.78;15.88;;;;;;;2.41;81.80;99982.56;5041407;28;20140;-79
2022/03/11 01:49:47;;;;;;;31.15;15.40;;;;;;;2.55;81.55;99994.78;5041582;28;20049;-80
2022/03/11 01:52:18;;;;;;;32.13;15.13;;;;;;;2.56;81.35;99988.75;5041220;28;20041;-80
2022/03/11 01:54:50;;;;;;;37.45;16.10;;;;;;;2.52;80.99;99981.88;5041285;28;20075;-79
2022/03/11 01:57:21;;;;;;;31.52;15.27;;;;;;;2.54;81.04;99990.47;5041215;28;20072;-79
2022/03/11 01:59:52;;;;;;;29.27;15.25;;;;;;;2.57;80.82;99982.78;5041531;28;20112;-79
2022/03/11 02:02:24;;;;;;;33.17;16.30;;;;;;;2.51;80.80;99964.63;5041390;28;20112;-79
2022/03/11 02:04:55;;;;;;;32.95;15.15;;;;;;;2.64;80.74;99980.25;5041302;28;20053;-78
2022/03/11 02:07:26;;;;;;;31.25;14.63;;;;;;;2.63;80.37;99969.06;5044640;28;20162;-79
2022/03/11 02:09:58;;;;;;;30.25;15.45;;;;;;;2.57;80.57;99954.41;5044605;28;20372;-77
2022/03/11 02:12:30;;;;;;;39.60;15.05;;;;;;;2.69;80.46;99963.09;5045268;28;20329;-79
2022/03/11 02:15:03;;;;;;;34.47;15.45;;;;;;;2.66;80.21;99961.38;5045229;28;20113;-79
2022/03/11 02:17:35;;;;;;;32.72;15.20;;;;;;;2.68;80.33;99958.81;5036643;28;20084;-78
2022/03/11 02:20:07;;;;;;;29.65;14.82;;;;;;;2.60;80.18;99948.41;5045062;28;20075;-78
2022/03/11 02:22:41;;;;;;;31.50;15.23;;;;;;;2.72;80.30;99955.41;5045030;28;20053;-79
2022/03/11 02:25:13;;;;;;;34.10;16.27;;;;;;;2.72;80.04;99952.81;5044946;28;20084;-78
2022/03/11 02:27:46;;;;;;;35.25;16.52;;;;;;;2.56;79.97;99942.34;5044705;28;20077;-78
2022/03/11 02:30:18;;;;;;;36.13;16.55;;;;;;;2.67;80.17;99955.38;5044888;28;20052;-78
2022/03/11 02:32:49;;;;;;;34.50;17.15;;;;;;;2.57;80.00;99933.78;5044764;28;20120;-78
2022/03/11 02:35:20;;;;;;;35.13;16.25;;;;;;;2.61;80.45;99933.78;5044694;28;20257;-77
2022/03/11 02:37:51;;;;;;;39.95;16.55;;;;;;;2.71;80.05;99944.22;5044590;28;20293;-78
2022/03/11 02:40:23;;;;;;;34.53;16.52;;;;;;;2.63;80.15;99945.00;5044760;28;20117;-78
2022/03/11 02:42:53;;;;;;;41.72;17.92;;;;;;;2.49;80.31;99944.84;5044604;28;20104;-78
2022/03/11 02:45:24;;;;;;;40.58;17.48;;;;;;;2.41;80.59;99947.34;5044552;28;20241;-78
2022/03/11 02:47:55;;;;;;;31.77;16.77;;;;;;;2.32;81.25;99934.31;5044345;28;20051;-78
2022/03/11 02:50:26;;;;;;;37.45;18.75;;;;;;;2.25;81.19;99935.97;5044577;28;20112;-77
2022/03/11 02:52:56;;;;;;;44.00;18.58;;;;;;;2.23;81.52;99934.22;5044569;28;20233;-78
2022/03/11 02:55:28;;;;;;;44.72;19.13;;;;;;;2.15;81.81;99906.66;5044784;28;20060;-79
2022/03/11 02:57:59;;;;;;;43.58;18.95;;;;;;;2.23;81.82;99911.03;5044201;28;20297;-79
2022/03/11 03:00:30;;;;;;;41.13;19.30;;;;;;;2.33;81.77;99923.19;5044444;28;20052;-78
2022/03/11 03:03:00;;;;;;;32.38;17.40;;;;;;;2.35;81.71;99916.34;5044410;28;20053;-78
2022/03/11 03:05:32;;;;;;;42.92;17.75;;;;;;;2.36;81.75;99911.16;5044222;28;20053;-78
2022/03/11 03:08:02;;;;;;;42.30;19.35;;;;;;;2.34;81.45;99905.13;5044172;28;20042;-78
2022/03/11 03:10:35;;;;;;;37.17;16.98;;;;;;;2.32;81.55;99895.66;5044277;28;20045;-79
2022/03/11 03:13:05;;;;;;;38.70;17.52;;;;;;;2.33;81.40;99897.41;5044109;28;20073;-78
2022/03/11 03:15:38;;;;;;;39.83;17.73;;;;;;;2.18;81.67;99881.75;5044267;28;20241;-78
2022/03/11 03:18:09;;;;;;;31.00;16.85;;;;;;;2.26;81.52;99885.28;5042888;28;20073;-79
2022/03/11 03:20:40;;;;;;;44.78;18.60;;;;;;;2.37;nan;99888.81;5044179;28;20084;-78
2022/03/11 03:23:11;;;;;;;39.83;17.02;;;;;;;2.34;81.39;99883.66;5043368;28;20053;-79
2022/03/11 03:25:43;;;;;;;38.60;18.48;;;;;;;2.31;81.71;99883.63;5039299;28;20100;-79
2022/03/11 03:28:13;;;;;;;34.95;16.95;;;;;;;2.27;81.88;99871.53;5041016;28;20108;-79
2022/03/11 03:30:44;;;;;;;41.95;18.27;;;;;;;2.32;81.71;99867.28;5043723;28;20105;-80
2022/03/11 03:33:15;;;;;;;35.75;17.58;;;;;;;2.33;81.75;99862.16;5044013;28;20100;-80
2022/03/11 03:35:46;;;;;;;34.38;17.48;;;;;;;2.32;81.93;99859.56;5043646;28;20384;-80
2022/03/11 03:38:16;;;;;;;33.92;17.27;;;;;;;2.39;81.79;99851.03;5039625;28;20041;-80
2022/03/11 03:40:49;;;;;;;35.40;17.98;;;;;;;2.41;81.90;99845.91;5043433;28;20077;-80
2022/03/11 03:43:19;;;;;;;36.95;18.15;;;;;;;2.47;81.77;99849.41;5043467;28;20045;-80
2022/03/11 03:45:50;;;;;;;35.40;17.30;;;;;;;2.36;81.50;99814.91;5043378;28;20052;-79
2022/03/11 03:48:21;;;;;;;36.40;17.33;;;;;;;2.41;81.59;99822.69;5041729;28;20053;-79
2022/03/11 03:50:52;;;;;;;33.13;16.98;;;;;;;2.11;81.52;99788.03;5043105;28;20084;-79
2022/03/11 03:53:23;;;;;;;31.17;16.95;;;;;;;2.54;81.48;99840.00;5035234;28;20057;-79
2022/03/11 03:55:55;;;;;;;37.13;17.50;;;;;;;2.55;81.10;99834.88;5037290;28;20081;-79
2022/03/11 03:58:26;;;;;;;38.85;18.35;;;;;;;2.59;81.41;99826.28;5028700;28;20120;-79
2022/03/11 04:00:57;;;;;;;40.30;18.17;;;;;;;2.54;81.13;99809.91;5041727;28;20364;-79
2022/03/11 04:03:28;;;;;;;31.63;18.73;;;;;;;2.52;81.26;99800.44;5043117;28;20148;-79
2022/03/11 04:05:59;;;;;;;33.53;17.80;;;;;;;2.47;80.87;99792.69;5042971;28;20072;-80
2022/03/11 04:08:30;;;;;;;33.08;16.95;;;;;;;2.62;81.04;99807.44;5042965;28;20321;-79
2022/03/11 04:11:02;;;;;;;34.45;17.40;;;;;;;2.57;80.83;99804.81;5042572;28;20042;-79
2022/03/11 04:13:35;;;;;;;28.83;15.30;;;;;;;2.61;80.99;99804.81;5042839;28;20052;-78
2022/03/11 04:16:06;;;;;;;29.20;15.75;;;;;;;2.54;81.10;99809.06;5042857;28;20337;-80
2022/03/11 04:18:37;;;;;;;31.48;15.82;;;;;;;2.52;81.38;99803.91;5039224;28;20325;-79
2022/03/11 04:21:08;;;;;;;27.85;15.35;;;;;;;2.54;81.27;99809.91;5036808;28;20214;-78
2022/03/11 04:23:38;;;;;;;28.00;15.70;;;;;;;2.53;81.52;99797.88;5042613;28;20336;-79
2022/03/11 04:26:11;;;;;;;27.63;15.73;;;;;;;2.51;81.19;99798.72;5042644;28;20053;-79
2022/03/11 04:28:41;;;;;;;27.15;16.40;;;;;;;2.39;81.78;99789.16;5041760;28;20108;-78
2022/03/11 04:31:14;;;;;;;27.98;15.60;;;;;;;2.38;81.86;99797.75;5040953;28;20049;-79
2022/03/11 04:33:45;;;;;;;30.55;16.33;;;;;;;2.31;81.69;99790.81;5042380;28;20053;-79
2022/03/11 04:36:15;;;;;;;28.20;15.55;;;;;;;2.33;82.15;99794.25;5042255;28;20360;-80
2022/03/11 04:38:46;;;;;;;27.55;15.63;;;;;;;2.31;81.93;99795.97;5042616;28;20496;-79
2022/03/11 04:41:19;;;;;;;30.17;15.73;;;;;;;2.28;82.50;99790.78;5042271;28;20077;-79
2022/03/11 04:43:50;;;;;;;32.70;15.70;;;;;;;1.96;82.46;99755.22;5042118;28;20140;-80
2022/03/11 04:46:21;;;;;;;32.35;15.63;;;;;;;2.20;82.56;99792.41;5042475;28;20073;-82
2022/03/11 04:48:51;;;;;;;32.60;14.48;;;;;;;2.25;82.79;99795.91;5041992;28;20057;-82
2022/03/11 04:51:23;;;;;;;27.10;13.18;;;;;;;2.26;82.79;99800.22;5042004;28;20329;-81
2022/03/11 04:53:54;;;;;;;24.52;14.18;;;;;;;2.25;82.84;99781.31;5041908;28;20049;-81
2022/03/11 04:56:26;;;;;;;26.73;14.73;;;;;;;2.29;82.93;99792.50;5041557;28;20065;-80
2022/03/11 04:58:57;;;;;;;32.65;15.48;;;;;;;2.19;82.87;99775.22;5042248;28;20081;-80
2022/03/11 05:01:28;;;;;;;27.10;14.52;;;;;;;2.13;82.90;99782.03;5042031;28;20057;-80
2022/03/11 05:03:59;;;;;;;26.38;15.00;;;;;;;2.15;83.01;99784.66;5042282;28;20592;-80
2022/03/11 05:06:30;;;;;;;24.17;14.45;;;;;;;2.00;82.99;99754.44;5041996;28;20057;-79
2022/03/11 05:09:00;;;;;;;27.58;14.07;;;;;;;2.24;82.97;99789.00;5042173;28;20142;-80
2022/03/11 05:11:33;;;;;;;33.47;15.57;;;;;;;2.23;83.07;99793.31;5041982;28;20064;-80
2022/03/11 05:14:04;;;;;;;29.45;15.05;;;;;;;2.12;82.98;99780.31;5041816;28;20045;-79
2022/03/11 05:16:38;;;;;;;30.13;16.85;;;;;;;2.03;83.37;99780.22;5041736;28;20053;-80
2022/03/11 05:19:09;;;;;;;38.83;17.23;;;;;;;2.16;83.68;99786.38;5041872;28;20049;-81
2022/03/11 05:21:40;;;;;;;33.00;16.90;;;;;;;2.11;83.24;99783.72;5042227;28;20085;-81
2022/03/11 05:24:10;;;;;;;45.25;17.75;;;;;;;1.81;83.18;99730.19;5041629;28;20049;-81
2022/03/11 05:26:43;;;;;;;41.70;17.50;;;;;;;2.04;83.51;99775.94;5041581;28;20049;-79
2022/03/11 05:29:14;;;;;;;42.90;18.50;;;;;;;1.71;83.30;99736.94;5041311;28;20045;-79
2022/03/11 05:31:44;;;;;;;46.35;19.30;;;;;;;2.16;83.35;99786.38;5041669;28;20048;-79
2022/03/11 05:34:15;;;;;;;67.47;18.02;;;;;;;2.14;83.50;99778.59;5041447;28;20136;-79
2022/03/11 05:36:46;;;;;;;47.67;18.65;;;;;;;2.08;83.45;99788.88;5040580;28;20057;-79
2022/03/11 05:39:17;;;;;;;52.28;18.40;;;;;;;2.10;83.63;99782.00;5039915;28;20041;-79
2022/03/11 05:41:49;;;;;;;61.03;17.33;;;;;;;2.11;83.60;99773.44;5040289;28;20045;-80
2022/03/11 05:44:20;;;;;;;48.63;17.25;;;;;;;2.04;83.57;99781.09;5040996;28;20042;-79
2022/03/11 05:46:52;;;;;;;52.00;18.27;;;;;;;1.91;84.07;99774.94;5041286;28;20395;-79
2022/03/11 05:49:23;;;;;;;46.80;16.52;;;;;;;1.78;84.09;99734.44;5030937;28;20104;-80
2022/03/11 05:51:54;;;;;;;66.40;18.35;;;;;;;2.11;84.08;99781.16;5040359;28;20092;-79
2022/03/11 05:54:25;;;;;;;36.63;16.75;;;;;;;2.03;83.84;99764.75;5040832;28;20113;-76
2022/03/11 05:56:57;;;;;;;53.08;17.55;;;;;;;2.15;84.22;99775.19;5041233;28;20054;-79
2022/03/11 05:59:29;;;;;;;43.85;19.40;;;;;;;2.15;83.86;99785.50;5041332;28;20075;-78
2022/03/11 06:02:01;;;;;;;54.20;17.08;;;;;;;1.90;83.69;99737.16;5041474;28;20108;-79
2022/03/11 06:04:34;;;;;;;50.38;16.58;;;;;;;2.10;83.93;99791.47;5041270;28;20053;-79
2022/03/11 06:07:08;;;;;;;51.08;17.50;;;;;;;2.02;83.75;99772.47;5041466;28;20049;-81
2022/03/11 06:09:39;;;;;;;40.55;16.50;;;;;;;1.99;83.97;99773.28;5041291;28;20321;-80
2022/03/11 06:12:12;;;;;;;39.95;17.08;;;;;;;1.97;84.18;99785.28;5041167;28;20084;-82
2022/03/11 06:14:43;;;;;;;40.33;19.35;;;;;;;1.62;84.44;99711.09;5040985;28;20052;-80
2022/03/11 06:17:16;;;;;;;35.88;17.42;;;;;;;1.82;84.46;99756.78;5041063;28;20045;-81
2022/03/11 06:19:47;;;;;;;59.17;18.63;;;;;;;1.96;84.35;99772.41;5041223;28;20393;-81
2022/03/11 06:22:19;;;;;;;47.95;19.73;;;;;;;1.96;84.72;99777.56;5040916;28;20052;-83
2022/03/11 06:24:50;;;;;;;35.95;19.15;;;;;;;1.94;84.69;99774.97;5039411;28;20073;-83
2022/03/11 06:27:24;;;;;;;43.45;18.27;;;;;;;1.35;84.51;99685.03;5040042;28;20041;-83
2022/03/11 06:29:57;;;;;;;58.70;19.13;;;;;;;1.41;84.57;99697.97;5040232;28;20053;-84
2022/03/11 06:32:28;;;;;;;51.55;20.58;;;;;;;1.85;84.71;99774.88;5039423;28;20060;-85
2022/03/11 06:34:58;;;;;;;59.45;20.92;;;;;;;1.78;84.62;99758.50;5040911;28;20049;-80
2022/03/11 06:37:31;;;;;;;41.15;20.85;;;;;;;1.35;84.53;99708.19;5040803;28;20101;-84
2022/03/11 06:40:04;;;;;;;53.85;24.55;;;;;;;1.82;84.77;99769.69;5040952;28;20325;-84
2022/03/11 06:42:42;;;;;;;52.47;25.08;;;;;;;1.47;85.14;99705.75;5040953;28;20048;-82
2022/03/11 06:45:14;;;;;;;46.88;21.98;;;;;;;1.70;85.13;99735.22;5040870;28;20065;-79
2022/03/11 06:47:46;;;;;;;48.42;23.77;;;;;;;1.50;84.76;99696.38;5039417;28;20343;-80
2022/03/11 06:50:18;;;;;;;41.45;21.73;;;;;;;1.91;84.98;99759.47;5035067;28;20041;-82
2022/03/11 06:52:49;;;;;;;45.67;22.52;;;;;;;1.94;85.13;99770.66;5042763;28;20095;-85
2022/03/11 06:55:19;;;;;;;49.88;23.75;;;;;;;1.22;84.59;99643.72;5044632;28;20045;-80
2022/03/11 06:57:53;;;;;;;54.65;29.92;;;;;;;1.54;84.55;99697.25;5044330;28;20053;-83
2022/03/11 07:00:26;;;;;;;69.93;36.17;;;;;;;1.80;84.72;99740.44;5044568;28;20105;-78
2022/03/11 07:02:59;;;;;;;49.42;25.48;;;;;;;1.95;84.98;99758.69;5044233;28;20598;-85
2022/03/11 07:05:30;;;;;;;42.08;20.63;;;;;;;1.79;84.75;99728.44;5044445;28;20045;-81
2022/03/11 07:08:01;;;;;;;48.70;23.33;;;;;;;1.75;85.06;99735.28;5043806;28;20045;-81
2022/03/11 07:10:32;;;;;;;66.18;27.90;;;;;;;1.49;84.80;99719.53;5044074;28;20080;-81
2022/03/11 07:13:05;;;;;;;70.57;32.85;;;;;;;1.77;84.76;99750.72;5044209;28;20053;-81
2022/03/11 07:15:44;;;;;;;61.72;28.35;;;;;;;1.57;84.97;99728.19;5043380;28;20329;-80
2022/03/11 07:18:15;;;;;;;52.67;24.02;;;;;;;1.11;85.08;99654.72;5040410;28;20230;-81
2022/03/11 07:20:47;;;;;;;51.92;22.08;;;;;;;0.88;85.04;99639.03;5037804;28;20050;-80
2022/03/11 07:23:33;;;;;;;38.45;18.33;;;;;;;1.71;85.26;99762.69;5041776;28;20045;-80
2022/03/11 07:26:04;;;;;;;49.55;18.50;;;;;;;1.73;85.36;99758.44;5043588;28;20116;-79
2022/03/11 07:28:37;;;;;;;35.65;17.65;;;;;;;1.43;85.24;99720.31;5043238;28;20079;-80
2022/03/11 07:31:10;;;;;;;71.72;22.17;;;;;;;1.51;85.37;99738.44;5036083;28;20064;-79
2022/03/11 07:33:41;;;;;;;43.65;21.45;;;;;;;1.65;85.36;99757.50;5042086;28;20045;-79
2022/03/11 07:36:11;;;;;;;45.42;21.60;;;;;;;1.61;85.48;99747.13;5041213;28;20237;-79
2022/03/11 07:38:42;;;;;;;47.50;20.75;;;;;;;1.72;85.83;99761.88;5042737;28;20109;-79
2022/03/11 07:41:14;;;;;;;36.25;18.58;;;;;;;1.58;85.26;99741.94;5038280;28;20124;-79
2022/03/11 07:43:47;;;;;;;45.55;18.92;;;;;;;1.41;85.26;99736.59;5042336;28;20248;-81
2022/03/11 07:46:38;;;;;;;40.38;19.20;;;;;;;1.50;85.51;99741.88;5042252;28;20042;-81
2022/03/11 07:49:09;;;;;;;41.58;19.27;;;;;;;1.56;85.73;99767.66;5041363;28;20088;-82
2022/03/11 07:51:41;;;;;;;46.17;19.83;;;;;;;1.08;85.33;99678.72;5041292;28;20057;-81
2022/03/11 07:54:12;;;;;;;45.63;21.02;;;;;;;1.03;85.77;99678.66;5041925;28;20041;-81
2022/03/11 07:56:43;;;;;;;49.50;20.98;;;;;;;1.51;85.78;99759.88;5040064;28;20057;-83
2022/03/11 07:59:16;;;;;;;50.88;23.75;;;;;;;1.50;85.63;99762.47;5042542;28;20057;-80
2022/03/11 08:01:47;;;;;;;37.65;20.05;;;;;;;1.33;85.84;99733.06;5038426;28;20351;-82
2022/03/11 08:04:18;;;;;;;41.05;20.95;;;;;;;1.07;85.88;99697.56;5041225;28;20076;-82
2022/03/11 08:06:49;;;;;;;35.72;20.50;;;;;;;1.49;86.31;99758.13;5043368;28;20117;-82
2022/03/11 08:09:20;;;;;;;35.92;20.73;;;;;;;0.89;85.99;99689.59;5042881;28;20276;-80
2022/03/11 08:11:51;;;;;;;56.25;21.95;;;;;;;1.46;86.16;99765.84;5042524;28;20318;-81
2022/03/11 08:14:25;;;;;;;41.25;21.15;;;;;;;1.47;86.13;99760.72;5043064;28;20046;-81
2022/03/11 08:16:57;;;;;;;41.83;21.42;;;;;;;0.74;86.16;99639.69;5041644;28;20111;-84
2022/03/11 08:19:30;;;;;;;50.15;22.23;;;;;;;1.48;86.24;99753.84;5023412;28;20053;-82
2022/03/11 08:22:02;;;;;;;40.10;23.85;;;;;;;0.99;86.28;99679.44;5042991;28;20084;-81
2022/03/11 08:24:33;;;;;;;43.72;22.33;;;;;;;1.37;86.32;99737.38;5042964;28;20053;-81
2022/03/11 08:27:05;;;;;;;35.22;20.20;;;;;;;1.10;86.53;99695.03;5043554;28;20079;-80
2022/03/11 08:29:37;;;;;;;57.97;25.13;;;;;;;1.46;86.35;99758.09;5042835;28;20077;-79
2022/03/11 08:32:11;;;;;;;79.32;29.23;;;;;;;1.45;86.37;99764.13;5043613;28;20080;-85
2022/03/11 08:34:47;;;;;;;48.58;26.30;;;;;;;0.80;86.66;99662.94;5044279;28;20230;-84
2022/03/11 08:37:28;;;;;;;52.92;25.10;;;;;;;1.45;86.68;99756.41;5044965;28;20060;-86
2022/03/11 08:40:05;;;;;;;54.78;24.10;;;;;;;1.43;86.59;99761.50;5045097;28;20059;-82
2022/03/11 08:42:37;;;;;;;43.38;22.73;;;;;;;1.45;86.68;99761.53;5050342;28;20093;-82
2022/03/11 08:45:11;;;;;;;44.88;22.83;;;;;;;1.44;86.77;99767.53;5059048;28;20057;-81
2022/03/11 08:47:46;;;;;;;48.80;23.35;;;;;;;1.34;87.06;99750.22;5056504;28;20057;-82
2022/03/11 08:50:17;;;;;;;43.78;22.17;;;;;;;1.41;86.69;99773.50;5056427;28;20080;-82
2022/03/11 08:52:48;;;;;;;47.83;23.88;;;;;;;1.41;86.93;99772.63;5056355;28;20040;-80
2022/03/11 08:55:19;;;;;;;58.20;26.42;;;;;;;1.21;87.05;99755.22;5055844;28;20098;-80
2022/03/11 08:57:51;;;;;;;68.70;28.77;;;;;;;1.39;86.88;99774.31;5055544;28;20029;-80
2022/03/11 09:00:26;;;;;;;52.70;27.35;;;;;;;1.37;87.09;99770.84;5055419;28;20057;-80
2022/03/11 09:02:57;;;;;;;59.47;26.85;;;;;;;1.36;87.07;99772.56;5056040;28;20392;-83
2022/03/11 09:05:32;;;;;;;52.92;27.60;;;;;;;1.38;87.28;99777.75;5055503;28;20068;-83
2022/03/11 09:08:02;;;;;;;57.30;28.85;;;;;;;1.36;87.21;99779.44;5056214;28;20036;-81
2022/03/11 09:10:33;;;;;;;61.00;27.80;;;;;;;1.36;87.07;99782.00;5054129;28;20096;-84
2022/03/11 09:13:05;;;;;;;160.68;78.45;;;;;;;1.32;87.02;99772.50;5046268;28;20042;-83
2022/03/11 09:15:37;;;;;;;350.15;143.27;;;;;;;1.36;86.92;99784.59;5043099;28;20049;-80
2022/03/11 09:18:12;;;;;;;163.73;68.25;;;;;;;0.73;86.87;99684.25;5042858;28;20121;-83
2022/03/11 09:20:43;;;;;;;503.33;201.70;;;;;;;1.29;87.47;99779.34;5042599;28;20053;-87
2022/03/11 09:23:13;;;;;;;223.57;85.55;;;;;;;1.34;87.34;99783.69;5042167;28;20041;-81
2022/03/11 09:25:44;;;;;;;114.35;45.90;;;;;;;1.30;87.41;99780.22;5042458;28;20042;-81
2022/03/11 09:28:15;;;;;;;143.55;57.35;;;;;;;1.26;87.12;99774.16;5042268;28;20105;-80
2022/03/11 09:30:47;;;;;;;184.73;64.78;;;;;;;1.21;87.27;99764.66;5042471;28;20301;-81
2022/03/11 09:33:20;;;;;;;327.38;108.18;;;;;;;1.34;87.32;99778.53;5042342;28;20080;-83
2022/03/11 09:35:52;;;;;;;168.05;61.33;;;;;;;1.33;87.35;99774.25;5042319;28;20052;-78
2022/03/11 09:38:22;;;;;;;128.02;47.65;;;;;;;1.29;87.27;99769.03;5042104;28;20067;-81
2022/03/11 09:40:57;;;;;;;120.65;45.75;;;;;;;1.26;87.00;99766.44;5038899;28;20409;-87
2022/03/11 09:43:28;;;;;;;166.10;60.10;;;;;;;1.19;86.93;99758.63;5042166;28;20496;-83
2022/03/11 09:46:01;;;;;;;128.65;46.75;;;;;;;0.65;87.31;99670.44;5044506;28;20244;-83
2022/03/11 09:48:32;;;;;;;223.30;61.92;;;;;;;1.26;87.16;99774.16;5041731;28;20072;-84
2022/03/11 09:51:04;;;;;;;105.07;33.70;;;;;;;1.19;87.30;99772.34;5037645;28;20045;-80
2022/03/11 09:53:43;;;;;;;139.07;45.95;;;;;;;1.00;87.23;99739.47;5043207;28;20076;-82
2022/03/11 09:56:13;;;;;;;70.85;29.55;;;;;;;1.13;87.06;99767.13;5041943;28;20092;-85
2022/03/11 09:59:11;;;;;;;79.68;30.70;;;;;;;1.03;87.42;99749.84;5041898;28;20317;-86
2022/03/11 10:02:32;;;;;;;74.57;29.35;;;;;;;0.93;87.00;99747.97;5041781;28;20053;-84
2022/03/11 10:05:04;;;;;;;52.28;24.70;;;;;;;1.13;87.46;99767.13;5041967;28;20345;-80
2022/03/11 10:08:03;;;;;;;109.15;39.42;;;;;;;1.16;87.47;99762.00;5041930;28;20089;-78
2022/03/11 10:10:33;;;;;;;161.48;52.45;;;;;;;1.17;87.27;99753.44;5041929;28;20053;-77
2022/03/11 10:13:09;;;;;;;103.15;35.78;;;;;;;0.98;87.38;99715.47;5041702;28;20057;-78
2022/03/11 10:15:41;;;;;;;68.57;29.48;;;;;;;1.16;87.51;99761.16;5042274;28;20045;-78
2022/03/11 10:18:19;;;;;;;74.05;30.98;;;;;;;1.00;87.46;99740.38;5042095;28;20343;-78
2022/03/11 10:20:49;;;;;;;83.43;35.50;;;;;;;1.08;87.13;99751.63;5042506;28;20092;-78
2022/03/11 10:23:21;;;;;;;111.97;40.95;;;;;;;1.06;87.21;99744.72;5042206;28;20268;-78
2022/03/11 10:26:04;;;;;;;64.38;30.73;;;;;;;1.16;86.99;99762.00;5042516;28;20112;-78
2022/03/11 10:28:35;;;;;;;56.05;27.08;;;;;;;1.15;87.05;99760.31;5046572;28;20104;-78
2022/03/11 10:31:11;;;;;;;87.43;35.20;;;;;;;1.13;87.10;99767.13;5047534;28;20049;-77
2022/03/11 10:33:44;;;;;;;86.40;34.47;;;;;;;1.06;87.11;99755.00;5047156;28;20041;-80
2022/03/11 10:36:15;;;;;;;65.78;28.17;;;;;;;1.07;87.04;99764.44;5051936;28;20097;-78
2022/03/11 10:38:46;;;;;;;62.30;28.10;;;;;;;1.10;87.25;99767.09;5061075;28;20033;-79
2022/03/11 10:41:18;;;;;;;78.80;36.17;;;;;;;1.02;87.17;99748.09;5059964;28;20064;-80
2022/03/11 10:44:04;;;;;;;97.47;42.35;;;;;;;1.06;87.37;99770.44;5059010;28;20037;-77
2022/03/11 10:46:35;;;;;;;111.65;45.78;;;;;;;1.14;87.19;99758.56;5058850;28;20038;-77
2022/03/11 10:49:07;;;;;;;199.25;61.28;;;;;;;1.17;87.49;99758.59;5058560;28;20097;-80
2022/03/11 10:51:39;;;;;;;123.90;48.83;;;;;;;1.11;87.45;99753.38;5058939;28;20064;-79
2022/03/11 10:54:10;;;;;;;69.50;33.08;;;;;;;1.05;87.30;99748.16;5058352;28;20046;-79
2022/03/11 10:56:43;;;;;;;62.90;30.48;;;;;;;1.11;87.48;99753.38;5058237;28;20021;-79
2022/03/11 10:59:16;;;;;;;92.95;33.15;;;;;;;1.12;86.94;99765.38;5058016;28;20047;-79
2022/03/11 11:01:47;;;;;;;139.38;48.10;;;;;;;1.13;87.07;99767.13;5058301;28;20089;-80
2022/03/11 11:04:20;;;;;;;108.10;37.97;;;;;;;1.02;87.20;99754.13;5057971;28;20037;-79
2022/03/11 11:06:51;;;;;;;82.15;35.67;;;;;;;1.11;87.16;99763.66;5058205;28;20040;-79
2022/03/11 11:09:26;;;;;;;106.00;40.97;;;;;;;0.99;87.16;99740.34;5047248;28;20049;-78
2022/03/11 11:11:57;;;;;;;116.75;43.03;;;;;;;1.12;87.58;99760.22;5044891;28;20099;-78
2022/03/11 11:14:27;;;;;;;92.45;34.28;;;;;;;1.10;87.12;99756.81;5033190;28;20041;-79
2022/03/11 11:17:02;;;;;;;78.07;32.53;;;;;;;1.08;87.23;99755.91;5044911;28;20080;-79
2022/03/11 11:19:37;;;;;;;90.93;32.03;;;;;;;0.95;87.14;99733.41;5044625;28;20630;-78
2022/03/11 11:22:08;;;;;;;91.57;29.05;;;;;;;0.97;87.41;99744.59;5044811;28;20052;-79
2022/03/11 11:24:43;;;;;;;82.55;31.08;;;;;;;1.06;87.50;99762.72;5044689;28;20045;-80
2022/03/11 11:27:14;;;;;;;88.57;28.55;;;;;;;1.00;87.51;99744.63;5044639;28;20045;-80
2022/03/11 11:29:49;;;;;;;71.57;28.77;;;;;;;0.99;87.74;99737.75;5044488;28;20050;-80
2022/03/11 11:32:21;;;;;;;83.40;28.67;;;;;;;0.92;87.59;99720.50;5043286;28;20053;-79
2022/03/11 11:34:53;;;;;;;95.40;30.40;;;;;;;1.07;87.29;99741.28;5043000;28;20041;-78
2022/03/11 11:37:40;;;;;;;74.20;26.33;;;;;;;1.02;87.47;99736.13;5041303;28;20347;-81
2022/03/11 11:40:32;;;;;;;76.82;26.58;;;;;;;0.92;87.34;99725.66;5041731;28;20065;-81
2022/03/11 11:43:30;;;;;;;76.75;28.27;;;;;;;1.01;87.38;99736.09;5042797;28;20053;-81
2022/03/11 11:46:12;;;;;;;99.15;33.22;;;;;;;1.02;87.81;99737.78;5044126;28;20108;-85
2022/03/11 11:49:01;;;;;;;72.95;29.38;;;;;;;1.04;87.69;99733.53;5030530;28;20067;-80